Time;durP1;ratioP1;P1;durP2;ratioP2;P2;SDS_P1;SDS_P2;PMS_P1;PMS_P2;Temp;Humidity;BMP_temperature;BMP_pressure;BME280_temperature;BME280_humidity;BME280_pressure;Samples;Min_cycle;Max_cycle;Signal;HPM_P1;HPM_P2
2023/12/30 00:02:12;;;;;;;0.20;0.20;;;6.50;99.90;;;;;;5034819;28;20241;-93
2023/12/30 00:04:37;;;;;;;0.30;0.30;;;6.50;99.90;;;;;;5054452;28;20198;-94
2023/12/30 00:07:03;;;;;;;0.30;0.30;;;6.50;99.90;;;;;;5047778;28;20179;-93
2023/12/30 00:09:28;;;;;;;0.30;0.30;;;6.50;99.90;;;;;;5048695;28;20198;-92
2023/12/30 00:11:54;;;;;;;0.20;0.20;;;6.50;99.90;;;;;;5028830;28;20233;-93
2023/12/30 00:14:20;;;;;;;0.30;0.30;;;6.50;99.90;;;;;;5033203;28;20277;-94
2023/12/30 00:16:45;;;;;;;0.30;0.30;;;6.50;99.90;;;;;;5029134;28;20295;-93
2023/12/30 00:19:12;;;;;;;0.27;0.27;;;6.40;99.90;;;;;;5015370;28;20246;-93
2023/12/30 00:21:37;;;;;;;0.30;0.30;;;6.40;99.90;;;;;;5040193;28;20179;-94
2023/12/30 00:24:03;;;;;;;0.30;0.30;;;6.30;99.90;;;;;;5046295;28;20484;-93
2023/12/30 00:26:29;;;;;;;0.30;0.30;;;6.20;99.90;;;;;;5059385;28;20261;-93
2023/12/30 00:28:55;;;;;;;0.30;0.30;;;6.30;99.90;;;;;;5049179;28;20464;-94
2023/12/30 00:31:28;;;;;;;0.30;0.30;;;6.30;99.90;;;;;;5039406;28;20612;-92
2023/12/30 00:33:56;;;;;;;0.30;0.30;;;6.20;99.90;;;;;;5016565;28;20180;-93
2023/12/30 00:36:22;;;;;;;0.30;0.30;;;6.30;99.90;;;;;;5046456;28;20564;-94
2023/12/30 00:38:47;;;;;;;0.30;0.30;;;6.30;99.90;;;;;;5036899;28;20535;-94
2023/12/30 00:41:13;;;;;;;0.30;0.30;;;6.30;99.90;;;;;;5055192;28;20721;-95
2023/12/30 00:43:40;;;;;;;0.30;0.30;;;6.30;99.90;;;;;;5043813;28;20194;-90
2023/12/30 00:46:06;;;;;;;0.30;0.30;;;6.20;99.90;;;;;;5040248;28;20207;-93
2023/12/30 00:48:32;;;;;;;0.30;0.30;;;5.90;99.90;;;;;;5019031;28;20533;-91
2023/12/30 00:50:59;;;;;;;0.30;0.30;;;5.70;99.90;;;;;;5039932;28;20576;-91
2023/12/30 00:53:25;;;;;;;0.30;0.30;;;5.60;99.90;;;;;;5038440;28;20395;-92
2023/12/30 00:55:50;;;;;;;0.30;0.30;;;5.60;99.90;;;;;;5051263;28;20422;-91
2023/12/30 00:58:16;;;;;;;0.30;0.30;;;5.50;99.90;;;;;;5055002;28;20630;-91
2023/12/30 01:00:41;;;;;;;0.30;0.30;;;5.40;99.90;;;;;;5050848;28;20171;-90
2023/12/30 01:03:07;;;;;;;0.30;0.30;;;5.40;99.90;;;;;;5030131;28;20187;-92
2023/12/30 01:05:32;;;;;;;0.30;0.30;;;5.40;99.90;;;;;;5037184;28;20034;-91
2023/12/30 01:07:58;;;;;;;0.30;0.30;;;5.40;99.90;;;;;;5032583;28;20150;-90
2023/12/30 01:10:23;;;;;;;0.30;0.30;;;5.40;99.90;;;;;;5046376;28;20609;-91
2023/12/30 01:12:48;;;;;;;0.30;0.30;;;5.40;99.90;;;;;;5055580;28;20222;-90
2023/12/30 01:15:14;;;;;;;0.30;0.30;;;5.40;99.90;;;;;;5037929;28;20183;-90
2023/12/30 01:17:39;;;;;;;0.30;0.30;;;5.40;99.90;;;;;;5036333;28;20229;-91
2023/12/30 01:20:06;;;;;;;0.30;0.30;;;5.40;99.90;;;;;;5036783;28;20198;-91
2023/12/30 01:22:31;;;;;;;0.30;0.30;;;5.30;99.90;;;;;;5035633;28;20195;-91
2023/12/30 01:24:57;;;;;;;0.30;0.30;;;5.20;99.90;;;;;;5044974;28;20388;-93
2023/12/30 01:27:22;;;;;;;0.30;0.30;;;4.90;99.90;;;;;;5038161;28;20651;-93
2023/12/30 01:29:48;;;;;;;0.30;0.30;;;4.80;99.90;;;;;;5042870;28;20207;-91
2023/12/30 01:32:13;;;;;;;0.30;0.30;;;4.70;99.90;;;;;;5021022;28;20559;-90
2023/12/30 01:34:39;;;;;;;0.30;0.30;;;4.80;99.90;;;;;;5034056;28;20188;-90
2023/12/30 01:37:04;;;;;;;0.30;0.30;;;4.80;99.90;;;;;;5015342;28;20341;-90
2023/12/30 01:39:30;;;;;;;0.30;0.30;;;4.90;99.90;;;;;;5034701;28;20103;-90
2023/12/30 01:41:55;;;;;;;0.30;0.30;;;5.00;99.90;;;;;;5036266;28;20238;-90
2023/12/30 01:44:21;;;;;;;0.30;0.30;;;5.00;99.90;;;;;;5039870;28;20266;-90
2023/12/30 01:46:48;;;;;;;0.30;0.30;;;5.00;99.90;;;;;;5027519;28;20647;-90
2023/12/30 01:49:14;;;;;;;0.30;0.30;;;5.00;99.90;;;;;;5020223;28;20239;-90
2023/12/30 01:51:40;;;;;;;0.30;0.30;;;5.10;99.90;;;;;;5045512;28;20493;-90
2023/12/30 01:54:06;;;;;;;0.30;0.30;;;5.10;99.90;;;;;;5048151;28;20500;-90
2023/12/30 01:56:31;;;;;;;0.40;0.40;;;5.10;99.90;;;;;;5052406;28;20248;-90
2023/12/30 01:58:59;;;;;;;0.30;0.30;;;5.10;99.90;;;;;;5051957;28;20425;-90
2023/12/30 02:01:27;;;;;;;0.30;0.30;;;5.10;99.90;;;;;;5035230;28;20181;-89
2023/12/30 02:03:53;;;;;;;0.30;0.30;;;5.00;99.90;;;;;;5042743;28;20413;-89
2023/12/30 02:06:19;;;;;;;0.30;0.30;;;5.00;99.90;;;;;;5045531;28;20438;-92
2023/12/30 02:08:45;;;;;;;0.30;0.30;;;5.00;99.90;;;;;;5017687;28;20179;-89
2023/12/30 02:11:12;;;;;;;0.30;0.30;;;5.00;99.90;;;;;;5022954;28;20219;-88
2023/12/30 02:13:41;;;;;;;0.30;0.30;;;4.90;99.90;;;;;;5037493;28;20469;-89
2023/12/30 02:16:07;;;;;;;0.30;0.30;;;4.90;99.90;;;;;;5043454;28;20441;-89
2023/12/30 02:18:32;;;;;;;0.30;0.30;;;4.90;99.90;;;;;;5041678;28;20431;-90
2023/12/30 02:20:58;;;;;;;0.30;0.30;;;4.90;99.90;;;;;;5040707;28;20034;-89
2023/12/30 02:23:23;;;;;;;0.30;0.30;;;4.90;99.90;;;;;;5044393;28;20189;-89
2023/12/30 02:25:49;;;;;;;0.30;0.30;;;4.80;99.90;;;;;;5035318;28;20182;-91
2023/12/30 02:28:14;;;;;;;0.30;0.30;;;4.80;99.90;;;;;;5034699;28;20651;-90
2023/12/30 02:30:40;;;;;;;0.23;0.23;;;4.70;99.90;;;;;;5033877;28;20211;-91
2023/12/30 02:33:06;;;;;;;0.30;0.30;;;4.60;99.90;;;;;;5033971;28;20160;-90
2023/12/30 02:35:31;;;;;;;0.40;0.40;;;4.60;99.90;;;;;;5015888;28;20668;-92
2023/12/30 02:37:57;;;;;;;0.30;0.30;;;4.60;99.90;;;;;;5033817;28;20171;-91
2023/12/30 02:40:22;;;;;;;0.30;0.30;;;4.50;99.90;;;;;;5045750;28;20218;-92
2023/12/30 02:42:48;;;;;;;0.30;0.30;;;4.60;99.90;;;;;;5050093;28;20104;-92
2023/12/30 02:45:14;;;;;;;0.30;0.30;;;4.60;99.90;;;;;;5028148;28;20223;-90
2023/12/30 02:47:40;;;;;;;0.30;0.30;;;4.60;99.90;;;;;;5035022;28;20219;-92
2023/12/30 02:50:06;;;;;;;0.30;0.30;;;4.60;99.90;;;;;;5047555;28;20512;-92
2023/12/30 02:52:31;;;;;;;0.30;0.30;;;4.50;99.90;;;;;;5027014;28;20190;-92
2023/12/30 02:54:57;;;;;;;0.30;0.30;;;4.40;99.90;;;;;;5041604;28;20442;-92
2023/12/30 02:57:23;;;;;;;0.30;0.30;;;4.40;99.90;;;;;;5048284;28;20187;-92
2023/12/30 02:59:49;;;;;;;0.30;0.30;;;4.40;99.90;;;;;;5034527;28;20187;-90
2023/12/30 03:02:14;;;;;;;0.30;0.30;;;4.40;99.90;;;;;;5034778;28;20446;-92
2023/12/30 03:04:39;;;;;;;0.30;0.30;;;4.40;99.90;;;;;;5046023;28;20191;-92
2023/12/30 03:07:05;;;;;;;0.30;0.30;;;4.40;99.90;;;;;;5042280;28;20184;-93
2023/12/30 03:09:30;;;;;;;0.30;0.30;;;4.40;99.90;;;;;;5038830;28;21805;-92
2023/12/30 03:11:56;;;;;;;0.30;0.30;;;4.40;99.90;;;;;;5044117;28;20186;-91
2023/12/30 03:14:22;;;;;;;0.30;0.30;;;4.40;99.90;;;;;;5048975;28;20226;-92
2023/12/30 03:16:47;;;;;;;0.30;0.30;;;4.40;99.90;;;;;;5046531;28;20187;-91
2023/12/30 03:19:13;;;;;;;0.30;0.30;;;4.40;99.90;;;;;;5053433;28;20194;-90
2023/12/30 03:21:38;;;;;;;0.30;0.30;;;4.40;99.90;;;;;;5051400;28;20187;-90
2023/12/30 03:24:04;;;;;;;0.30;0.30;;;4.40;99.90;;;;;;5038881;28;20165;-91
2023/12/30 03:26:29;;;;;;;0.27;0.27;;;4.50;99.90;;;;;;5035643;28;20191;-90
2023/12/30 03:28:55;;;;;;;0.27;0.27;;;4.40;99.90;;;;;;5033317;28;20183;-90
2023/12/30 03:31:25;;;;;;;0.30;0.30;;;4.50;99.90;;;;;;5035368;28;20197;-90
2023/12/30 03:33:51;;;;;;;0.30;0.30;;;4.50;99.90;;;;;;5034836;28;20211;-90
2023/12/30 03:36:16;;;;;;;0.40;0.40;;;4.50;99.90;;;;;;5032853;28;20871;-90
2023/12/30 03:38:42;;;;;;;0.30;0.30;;;4.50;99.90;;;;;;5018251;28;20188;-90
2023/12/30 03:41:07;;;;;;;0.30;0.30;;;4.50;99.90;;;;;;5014035;28;20211;-90
2023/12/30 03:43:33;;;;;;;0.30;0.30;;;4.50;99.90;;;;;;5032679;28;20261;-89
2023/12/30 03:45:59;;;;;;;0.30;0.30;;;4.50;99.90;;;;;;5044803;28;20196;-89
2023/12/30 03:48:24;;;;;;;0.30;0.30;;;4.50;99.90;;;;;;5015951;28;20195;-90
2023/12/30 03:50:50;;;;;;;0.30;0.30;;;4.50;99.90;;;;;;5023024;28;20747;-90
2023/12/30 03:53:15;;;;;;;0.40;0.40;;;4.50;99.90;;;;;;5047420;28;20179;-90
2023/12/30 03:55:41;;;;;;;0.30;0.30;;;4.40;99.90;;;;;;5052483;28;20191;-90
2023/12/30 03:58:06;;;;;;;0.27;0.27;;;4.50;99.90;;;;;;5027355;28;20194;-90
2023/12/30 04:00:32;;;;;;;0.30;0.30;;;4.50;99.90;;;;;;5042198;28;20709;-90
2023/12/30 04:02:57;;;;;;;0.30;0.30;;;4.50;99.90;;;;;;5026431;28;20648;-90
2023/12/30 04:05:23;;;;;;;0.30;0.30;;;4.50;99.90;;;;;;5013556;28;20198;-90
2023/12/30 04:07:48;;;;;;;0.30;0.30;;;4.50;99.90;;;;;;5019570;28;20261;-91
2023/12/30 04:10:15;;;;;;;0.30;0.30;;;4.50;99.90;;;;;;5023884;28;20230;-91
2023/12/30 04:12:41;;;;;;;0.30;0.30;;;4.50;99.90;;;;;;5036216;28;20293;-90
2023/12/30 04:15:08;;;;;;;0.30;0.30;;;4.50;99.90;;;;;;5045355;28;20481;-91
2023/12/30 04:17:33;;;;;;;0.30;0.30;;;4.40;99.90;;;;;;5031371;28;20422;-91
2023/12/30 04:19:59;;;;;;;0.30;0.30;;;4.50;99.90;;;;;;5033697;28;20429;-90
2023/12/30 04:22:27;;;;;;;0.20;0.20;;;4.50;99.90;;;;;;5048941;28;20455;-89
2023/12/30 04:24:53;;;;;;;0.30;0.30;;;4.50;99.90;;;;;;5022945;28;20176;-91
2023/12/30 04:27:18;;;;;;;0.30;0.30;;;4.40;99.90;;;;;;5014890;28;20525;-90
2023/12/30 04:29:44;;;;;;;0.30;0.30;;;4.40;99.90;;;;;;5048465;28;20305;-92
2023/12/30 04:32:09;;;;;;;0.30;0.30;;;4.50;99.90;;;;;;5036893;28;20237;-90
2023/12/30 04:34:35;;;;;;;0.30;0.30;;;4.50;99.90;;;;;;5049091;28;20248;-90
2023/12/30 04:37:02;;;;;;;0.30;0.30;;;4.50;99.90;;;;;;5045858;28;20181;-88
2023/12/30 04:39:27;;;;;;;0.30;0.30;;;4.50;99.90;;;;;;5051119;28;20526;-89
2023/12/30 04:41:53;;;;;;;0.30;0.30;;;4.50;99.90;;;;;;5038143;28;20848;-89
2023/12/30 04:44:18;;;;;;;0.30;0.30;;;4.50;99.90;;;;;;5044237;28;20233;-90
2023/12/30 04:46:44;;;;;;;0.30;0.30;;;4.50;99.90;;;;;;5043687;28;20193;-91
2023/12/30 04:49:11;;;;;;;0.30;0.30;;;4.40;99.90;;;;;;5040490;28;20236;-90
2023/12/30 04:51:37;;;;;;;0.30;0.30;;;4.40;99.90;;;;;;5048373;28;20178;-90
2023/12/30 04:54:02;;;;;;;0.30;0.30;;;4.40;99.90;;;;;;5039631;28;20433;-89
2023/12/30 04:56:28;;;;;;;0.30;0.30;;;4.40;99.90;;;;;;5031275;28;21009;-89
2023/12/30 04:58:53;;;;;;;0.30;0.30;;;4.40;99.90;;;;;;5040785;28;20228;-90
2023/12/30 05:01:19;;;;;;;0.30;0.30;;;4.40;99.90;;;;;;5031592;28;20191;-90
2023/12/30 05:03:44;;;;;;;0.30;0.30;;;4.50;99.90;;;;;;5018803;28;20186;-91
2023/12/30 05:06:19;;;;;;;0.30;0.30;;;4.50;99.90;;;;;;5043174;28;20179;-89
2023/12/30 05:08:45;;;;;;;0.30;0.30;;;4.50;99.90;;;;;;5049964;28;20214;-90
2023/12/30 05:11:10;;;;;;;0.30;0.30;;;4.50;99.90;;;;;;5040941;28;20540;-90
2023/12/30 05:13:36;;;;;;;0.30;0.30;;;4.60;99.90;;;;;;5028329;28;20222;-92
2023/12/30 05:16:01;;;;;;;0.30;0.30;;;4.60;99.90;;;;;;5043296;28;20278;-90
2023/12/30 05:18:27;;;;;;;0.30;0.30;;;4.70;99.90;;;;;;5030659;28;20195;-91
2023/12/30 05:20:52;;;;;;;0.30;0.30;;;4.70;99.90;;;;;;5038251;28;20285;-90
2023/12/30 05:23:18;;;;;;;0.30;0.30;;;4.80;99.90;;;;;;5044996;28;20186;-93
2023/12/30 05:25:43;;;;;;;0.27;0.27;;;4.80;99.90;;;;;;5034015;28;20168;-89
2023/12/30 05:28:09;;;;;;;0.20;0.20;;;4.80;99.90;;;;;;5031869;28;20192;-89
2023/12/30 05:30:34;;;;;;;0.23;0.23;;;4.80;99.90;;;;;;5029117;28;20215;-89
2023/12/30 05:33:00;;;;;;;0.30;0.30;;;4.80;99.90;;;;;;5040029;28;20627;-91
2023/12/30 05:35:25;;;;;;;0.20;0.20;;;4.70;99.90;;;;;;5037851;28;20191;-92
2023/12/30 05:37:51;;;;;;;0.30;0.30;;;4.70;99.90;;;;;;5014997;28;20184;-92
2023/12/30 05:40:16;;;;;;;0.23;0.23;;;4.70;99.90;;;;;;5047608;28;20183;-90
2023/12/30 05:42:42;;;;;;;0.30;0.30;;;4.70;99.90;;;;;;5027061;28;20651;-92
2023/12/30 05:45:08;;;;;;;0.20;0.20;;;4.70;99.90;;;;;;5044574;28;20199;-90
2023/12/30 05:47:33;;;;;;;0.30;0.30;;;4.80;99.90;;;;;;5037611;28;20246;-90
2023/12/30 05:49:59;;;;;;;0.30;0.30;;;4.80;99.90;;;;;;5052969;28;20482;-92
2023/12/30 05:52:24;;;;;;;0.20;0.20;;;4.80;99.90;;;;;;5042742;28;20183;-90
2023/12/30 05:54:50;;;;;;;0.30;0.30;;;4.80;99.90;;;;;;5044023;28;20190;-89
2023/12/30 05:57:15;;;;;;;0.30;0.30;;;4.80;99.90;;;;;;5039563;28;20171;-89
2023/12/30 05:59:41;;;;;;;0.30;0.30;;;4.80;99.90;;;;;;5028853;28;20187;-89
2023/12/30 06:02:07;;;;;;;0.30;0.30;;;4.80;99.90;;;;;;5040047;28;20655;-89
2023/12/30 06:04:33;;;;;;;0.30;0.30;;;4.80;99.90;;;;;;5045030;28;20426;-89
2023/12/30 06:06:59;;;;;;;0.30;0.30;;;4.80;99.90;;;;;;5018221;28;20588;-90
2023/12/30 06:09:26;;;;;;;0.20;0.20;;;4.90;99.90;;;;;;5035102;28;20290;-90
2023/12/30 06:11:51;;;;;;;0.30;0.30;;;4.90;99.90;;;;;;5018896;28;20458;-89
2023/12/30 06:14:17;;;;;;;0.20;0.20;;;4.90;99.90;;;;;;5045225;28;20994;-89
2023/12/30 06:16:42;;;;;;;0.30;0.30;;;4.90;99.90;;;;;;5042644;28;20251;-90
2023/12/30 06:19:13;;;;;;;0.30;0.30;;;5.00;99.90;;;;;;5044140;28;20172;-92
2023/12/30 06:21:38;;;;;;;0.30;0.30;;;4.90;99.90;;;;;;5033576;28;20666;-90
2023/12/30 06:24:04;;;;;;;0.20;0.20;;;5.00;99.90;;;;;;5024260;28;20425;-90
2023/12/30 06:26:29;;;;;;;0.20;0.20;;;4.90;99.90;;;;;;5041060;28;20301;-88
2023/12/30 06:28:55;;;;;;;0.20;0.20;;;5.00;99.90;;;;;;5042137;28;20183;-88
2023/12/30 06:31:20;;;;;;;0.20;0.20;;;5.00;99.90;;;;;;5030640;28;20221;-87
2023/12/30 06:33:46;;;;;;;0.30;0.30;;;5.00;99.90;;;;;;5037237;28;20204;-86
2023/12/30 06:36:20;;;;;;;0.30;0.30;;;5.00;99.90;;;;;;5039702;28;20206;-86
2023/12/30 06:38:46;;;;;;;0.20;0.20;;;4.90;99.90;;;;;;5044083;28;20197;-87
2023/12/30 06:41:11;;;;;;;0.30;0.30;;;4.90;99.90;;;;;;5051432;28;20785;-85
2023/12/30 06:43:37;;;;;;;0.30;0.30;;;4.90;99.90;;;;;;5011600;28;20183;-86
2023/12/30 06:46:05;;;;;;;0.20;0.20;;;4.90;99.90;;;;;;5036555;28;20188;-86
2023/12/30 06:48:31;;;;;;;0.30;0.30;;;4.90;99.90;;;;;;5028937;28;20577;-84
2023/12/30 06:50:57;;;;;;;0.20;0.20;;;4.80;99.90;;;;;;5040827;28;20478;-86
2023/12/30 06:53:22;;;;;;;0.20;0.20;;;4.80;99.90;;;;;;5032808;28;20191;-86
2023/12/30 06:55:48;;;;;;;0.20;0.20;;;4.80;99.90;;;;;;5035108;28;20187;-86
2023/12/30 06:58:13;;;;;;;0.30;0.30;;;4.70;99.90;;;;;;5040370;28;20187;-86
2023/12/30 07:00:39;;;;;;;0.20;0.20;;;4.80;99.90;;;;;;5045694;28;20675;-84
2023/12/30 07:03:05;;;;;;;0.30;0.30;;;4.70;99.90;;;;;;5021989;28;20192;-86
2023/12/30 07:05:35;;;;;;;0.30;0.30;;;4.60;99.90;;;;;;5020797;28;20192;-85
2023/12/30 07:08:01;;;;;;;0.30;0.30;;;4.60;99.90;;;;;;5022664;28;20274;-85
2023/12/30 07:10:27;;;;;;;0.30;0.30;;;4.60;99.90;;;;;;5028797;28;20591;-84
2023/12/30 07:12:52;;;;;;;0.27;0.27;;;4.60;99.90;;;;;;5049635;28;20277;-85
2023/12/30 07:15:18;;;;;;;0.30;0.30;;;4.60;99.90;;;;;;5038015;28;20286;-87
2023/12/30 07:17:44;;;;;;;0.30;0.30;;;4.60;99.90;;;;;;5041801;28;20186;-88
2023/12/30 07:20:10;;;;;;;0.27;0.27;;;4.60;99.90;;;;;;5037704;28;20190;-88
2023/12/30 07:22:36;;;;;;;0.30;0.30;;;4.60;99.90;;;;;;5046909;28;20474;-85
2023/12/30 07:25:01;;;;;;;0.20;0.20;;;4.60;99.90;;;;;;5038443;28;20425;-85
2023/12/30 07:27:27;;;;;;;0.30;0.30;;;4.60;99.90;;;;;;5047627;28;20312;-85
2023/12/30 07:29:53;;;;;;;0.20;0.20;;;4.60;99.90;;;;;;5023700;28;20218;-85
2023/12/30 07:32:18;;;;;;;0.30;0.30;;;4.60;99.90;;;;;;5040350;28;20179;-85
2023/12/30 07:34:43;;;;;;;0.30;0.30;;;4.60;99.90;;;;;;5037617;28;20989;-87
2023/12/30 07:37:09;;;;;;;0.30;0.30;;;4.70;99.90;;;;;;5037142;28;20210;-88
2023/12/30 07:39:34;;;;;;;0.30;0.30;;;4.90;99.90;;;;;;5054011;28;20592;-88
2023/12/30 07:42:00;;;;;;;0.30;0.30;;;5.00;99.90;;;;;;5038062;28;20187;-88
2023/12/30 07:44:28;;;;;;;0.20;0.20;;;4.90;99.90;;;;;;5044964;28;20738;-89
2023/12/30 07:46:54;;;;;;;0.30;0.30;;;4.80;99.90;;;;;;5032172;28;20186;-87
2023/12/30 07:49:19;;;;;;;0.30;0.30;;;4.80;99.90;;;;;;5033028;28;20434;-87
2023/12/30 07:51:45;;;;;;;0.20;0.20;;;4.70;99.90;;;;;;5031052;28;20898;-87
2023/12/30 07:54:12;;;;;;;0.30;0.30;;;4.70;99.90;;;;;;5031603;28;20257;-89
2023/12/30 07:56:38;;;;;;;0.30;0.30;;;4.70;99.90;;;;;;5031721;28;20202;-89
2023/12/30 07:59:03;;;;;;;0.30;0.30;;;4.70;99.90;;;;;;5022968;28;20435;-89
2023/12/30 08:01:29;;;;;;;0.30;0.30;;;4.70;99.90;;;;;;5035877;28;20189;-90
2023/12/30 08:03:54;;;;;;;0.30;0.30;;;4.80;99.90;;;;;;5032909;28;20270;-89
2023/12/30 08:06:20;;;;;;;0.30;0.30;;;4.80;99.90;;;;;;5036047;28;20210;-92
2023/12/30 08:08:46;;;;;;;0.30;0.30;;;4.80;99.90;;;;;;5032188;28;20230;-91
2023/12/30 08:11:12;;;;;;;0.30;0.30;;;4.80;99.90;;;;;;5035321;28;20226;-89
2023/12/30 08:13:37;;;;;;;0.27;0.27;;;4.80;99.90;;;;;;5034858;28;20235;-90
2023/12/30 08:16:03;;;;;;;0.20;0.20;;;4.80;99.90;;;;;;5015832;28;20434;-91
2023/12/30 08:18:28;;;;;;;0.30;0.30;;;4.80;99.90;;;;;;5015979;28;20618;-91
2023/12/30 08:20:54;;;;;;;0.30;0.30;;;4.80;99.90;;;;;;5016344;28;20207;-90
2023/12/30 08:23:19;;;;;;;0.20;0.20;;;4.80;99.90;;;;;;5044886;28;20701;-90
2023/12/30 08:25:45;;;;;;;0.30;0.30;;;4.80;99.90;;;;;;5030735;28;20543;-88
2023/12/30 08:28:11;;;;;;;0.30;0.30;;;4.80;99.90;;;;;;5017284;28;20179;-90
2023/12/30 08:30:36;;;;;;;0.30;0.30;;;4.80;99.90;;;;;;5030273;28;20223;-89
2023/12/30 08:33:06;;;;;;;0.30;0.30;;;4.80;99.90;;;;;;5017929;28;20180;-90
2023/12/30 08:35:32;;;;;;;0.30;0.30;;;4.80;99.90;;;;;;5031699;28;20195;-89
2023/12/30 08:37:58;;;;;;;0.30;0.30;;;4.80;99.90;;;;;;5035480;28;20516;-90
2023/12/30 08:40:23;;;;;;;0.30;0.30;;;4.80;99.90;;;;;;5031522;28;20925;-90
2023/12/30 08:42:49;;;;;;;0.30;0.30;;;4.80;99.90;;;;;;5037512;28;20206;-90
2023/12/30 08:45:18;;;;;;;0.30;0.30;;;4.90;99.90;;;;;;5039436;28;20183;-90
2023/12/30 08:47:45;;;;;;;0.30;0.30;;;5.10;99.90;;;;;;5041071;28;20177;-91
2023/12/30 08:50:11;;;;;;;0.20;0.20;;;5.10;99.90;;;;;;5032598;28;20477;-92
2023/12/30 08:52:37;;;;;;;0.20;0.20;;;5.10;99.90;;;;;;5029638;28;20433;-92
2023/12/30 08:55:05;;;;;;;0.30;0.30;;;5.10;99.90;;;;;;5031518;28;20465;-90
2023/12/30 08:57:30;;;;;;;0.20;0.20;;;5.20;99.90;;;;;;5027238;28;20172;-90
2023/12/30 08:59:56;;;;;;;0.30;0.30;;;5.20;99.90;;;;;;5027386;28;20450;-92
2023/12/30 09:02:22;;;;;;;0.20;0.20;;;5.20;99.90;;;;;;5027437;28;20187;-91
2023/12/30 09:04:48;;;;;;;0.30;0.30;;;5.20;99.90;;;;;;5017587;28;20238;-90
2023/12/30 09:07:14;;;;;;;0.30;0.30;;;5.10;99.90;;;;;;5024825;28;21932;-91
2023/12/30 09:09:41;;;;;;;0.30;0.30;;;5.10;99.90;;;;;;5029538;28;20237;-90
2023/12/30 09:12:07;;;;;;;0.20;0.20;;;5.20;99.90;;;;;;5033125;28;20938;-90
2023/12/30 09:14:32;;;;;;;0.20;0.20;;;5.20;99.90;;;;;;5033638;28;21149;-79
2023/12/30 09:16:58;;;;;;;0.30;0.30;;;5.20;99.90;;;;;;5013689;28;20446;-91
2023/12/30 09:19:23;;;;;;;0.30;0.30;;;5.20;99.90;;;;;;5018600;28;20191;-91
2023/12/30 09:21:49;;;;;;;0.30;0.30;;;5.20;99.90;;;;;;5035402;28;20713;-91
2023/12/30 09:24:14;;;;;;;0.20;0.20;;;5.10;99.90;;;;;;5013680;28;20206;-79
2023/12/30 09:26:40;;;;;;;0.30;0.30;;;5.10;99.90;;;;;;5013603;28;20183;-87
2023/12/30 09:29:07;;;;;;;0.20;0.20;;;5.10;99.90;;;;;;5031392;28;20654;-86
2023/12/30 09:31:32;;;;;;;0.20;0.20;;;5.20;99.90;;;;;;5029670;28;20631;-86
2023/12/30 09:33:58;;;;;;;0.30;0.30;;;5.30;99.90;;;;;;5030643;28;20454;-85
2023/12/30 09:36:23;;;;;;;0.20;0.20;;;5.30;99.90;;;;;;5029443;28;20270;-85
2023/12/30 09:38:49;;;;;;;0.30;0.30;;;5.30;99.90;;;;;;5032569;28;20183;-85
2023/12/30 09:41:17;;;;;;;0.23;0.23;;;5.20;99.90;;;;;;5015236;28;20606;-86
2023/12/30 09:43:43;;;;;;;0.30;0.30;;;5.10;99.90;;;;;;5032686;28;21180;-86
2023/12/30 09:46:09;;;;;;;0.20;0.20;;;5.10;99.90;;;;;;5029949;28;20452;-86
2023/12/30 09:48:35;;;;;;;0.30;0.30;;;5.20;99.90;;;;;;5032555;28;20438;-86
2023/12/30 09:51:01;;;;;;;0.20;0.20;;;5.20;99.90;;;;;;5029996;28;20298;-86
2023/12/30 09:53:26;;;;;;;0.20;0.20;;;5.20;99.90;;;;;;5000075;28;20872;-86
2023/12/30 09:55:53;;;;;;;0.30;0.30;;;5.30;99.90;;;;;;5030381;28;20595;-86
2023/12/30 09:58:20;;;;;;;0.20;0.20;;;5.30;99.90;;;;;;5028141;28;20188;-86
2023/12/30 10:00:46;;;;;;;0.30;0.30;;;5.40;99.90;;;;;;5029562;28;20962;-87
2023/12/30 10:03:12;;;;;;;0.20;0.20;;;6.00;99.90;;;;;;5026638;28;20442;-86
2023/12/30 10:05:38;;;;;;;0.20;0.20;;;6.20;99.90;;;;;;5028916;28;20667;-86
2023/12/30 10:08:04;;;;;;;0.20;0.20;;;6.30;99.90;;;;;;5025567;28;20431;-87
2023/12/30 10:10:42;;;;;;;0.20;0.20;;;6.30;99.90;;;;;;5028892;28;20309;-86
2023/12/30 10:13:08;;;;;;;0.20;0.20;;;6.50;99.90;;;;;;5029358;28;20514;-86
2023/12/30 10:15:33;;;;;;;0.20;0.20;;;6.60;99.90;;;;;;5032154;28;20466;-86
2023/12/30 10:17:59;;;;;;;0.20;0.20;;;6.40;99.90;;;;;;5032631;28;20249;-86
2023/12/30 10:20:24;;;;;;;0.20;0.20;;;6.60;99.90;;;;;;5032518;28;20690;-85
2023/12/30 10:22:50;;;;;;;0.20;0.20;;;6.70;99.90;;;;;;5031063;28;20187;-86
2023/12/30 10:25:16;;;;;;;0.20;0.20;;;6.70;99.90;;;;;;5030746;28;20670;-86
2023/12/30 10:27:41;;;;;;;0.20;0.20;;;6.70;99.90;;;;;;5027750;28;20184;-84
2023/12/30 10:30:08;;;;;;;0.20;0.20;;;6.50;99.90;;;;;;5025129;28;20223;-86
2023/12/30 10:32:33;;;;;;;0.20;0.20;;;6.40;99.90;;;;;;5030105;28;20188;-85
2023/12/30 10:34:59;;;;;;;0.20;0.20;;;6.50;99.90;;;;;;5009734;28;20566;-87
2023/12/30 10:37:28;;;;;;;0.20;0.20;;;6.60;99.90;;;;;;5029816;28;20195;-85
2023/12/30 10:39:54;;;;;;;0.20;0.20;;;6.60;99.90;;;;;;5029375;28;20210;-86
2023/12/30 10:42:20;;;;;;;0.20;0.20;;;7.30;99.90;;;;;;5029794;28;20430;-86
2023/12/30 10:44:46;;;;;;;0.20;0.20;;;7.70;99.90;;;;;;5030373;28;21156;-86
2023/12/30 10:47:14;;;;;;;0.20;0.20;;;7.50;99.90;;;;;;5013619;28;20184;-86
2023/12/30 10:49:48;;;;;;;0.20;0.20;;;7.30;99.90;;;;;;5031699;28;20571;-86
2023/12/30 10:52:17;;;;;;;0.20;0.20;;;7.30;99.90;;;;;;5029616;28;20544;-85
2023/12/30 10:54:52;;;;;;;0.20;0.20;;;7.70;99.90;;;;;;5034417;28;20452;-85
2023/12/30 10:57:23;;;;;;;0.20;0.20;;;8.00;99.90;;;;;;5022293;28;20458;-84
2023/12/30 10:59:50;;;;;;;0.20;0.20;;;8.60;99.90;;;;;;5026563;28;20438;-83
2023/12/30 11:02:16;;;;;;;0.13;0.13;;;8.90;99.90;;;;;;5029638;28;20453;-86
2023/12/30 11:04:42;;;;;;;0.20;0.20;;;8.40;99.90;;;;;;5029807;28;20505;-86
2023/12/30 11:07:10;;;;;;;0.20;0.20;;;8.10;99.90;;;;;;5028098;28;20540;-87
2023/12/30 11:09:36;;;;;;;0.13;0.13;;;8.10;99.90;;;;;;5027988;28;20607;-86
2023/12/30 11:12:02;;;;;;;0.20;0.20;;;8.00;99.90;;;;;;5038359;28;21016;-86
2023/12/30 11:14:28;;;;;;;0.20;0.20;;;8.00;99.90;;;;;;5024168;28;20331;-84
2023/12/30 11:16:55;;;;;;;0.20;0.20;;;7.90;99.90;;;;;;5028135;28;20449;-86
2023/12/30 11:19:31;;;;;;;0.20;0.20;;;7.60;99.90;;;;;;5030632;28;20591;-85
2023/12/30 11:22:01;;;;;;;0.23;0.23;;;7.30;99.90;;;;;;5028749;28;20445;-85
2023/12/30 11:24:27;;;;;;;0.30;0.30;;;7.10;99.90;;;;;;5030821;28;20430;-85
2023/12/30 11:26:54;;;;;;;0.20;0.20;;;7.10;99.90;;;;;;5010017;28;20446;-85
2023/12/30 11:29:24;;;;;;;0.20;0.20;;;7.10;99.90;;;;;;5030471;28;20214;-85
2023/12/30 11:31:51;;;;;;;0.20;0.20;;;7.10;99.90;;;;;;5030666;28;20450;-85
2023/12/30 11:34:17;;;;;;;0.30;0.30;;;7.10;99.90;;;;;;5030985;28;20433;-84
2023/12/30 11:36:43;;;;;;;0.20;0.20;;;7.30;99.90;;;;;;5030077;28;20442;-84
2023/12/30 11:39:13;;;;;;;0.20;0.20;;;7.30;99.90;;;;;;5029366;28;20723;-84
2023/12/30 11:41:39;;;;;;;0.20;0.20;;;7.30;99.90;;;;;;5028056;28;20454;-84
2023/12/30 11:44:08;;;;;;;0.20;0.20;;;7.20;99.90;;;;;;5029497;28;20449;-85
2023/12/30 11:46:34;;;;;;;0.20;0.20;;;7.10;99.90;;;;;;5012486;28;20644;-85
2023/12/30 11:49:00;;;;;;;0.20;0.20;;;7.00;99.90;;;;;;5029095;28;20504;-84
2023/12/30 11:51:30;;;;;;;0.20;0.20;;;7.00;99.90;;;;;;5030180;28;20745;-84
2023/12/30 11:53:56;;;;;;;0.30;0.30;;;7.00;99.90;;;;;;5028597;28;21049;-84
2023/12/30 11:56:22;;;;;;;0.20;0.20;;;7.00;99.90;;;;;;5029788;28;20522;-86
2023/12/30 11:58:51;;;;;;;0.20;0.20;;;7.00;99.90;;;;;;5019574;28;20226;-85
2023/12/30 12:01:18;;;;;;;0.20;0.20;;;6.90;99.90;;;;;;5016954;28;20464;-86
2023/12/30 12:03:44;;;;;;;0.20;0.20;;;6.70;99.90;;;;;;5018452;28;20958;-86
2023/12/30 12:06:10;;;;;;;0.20;0.20;;;6.60;99.90;;;;;;5018385;28;20453;-85
2023/12/30 12:08:36;;;;;;;0.30;0.30;;;6.60;99.90;;;;;;5022893;28;20187;-85
2023/12/30 12:11:02;;;;;;;0.20;0.20;;;6.70;99.90;;;;;;5028353;28;20908;-85
2023/12/30 12:13:28;;;;;;;0.20;0.20;;;6.60;99.90;;;;;;5009149;28;20852;-85
2023/12/30 12:15:55;;;;;;;0.20;0.20;;;6.60;99.90;;;;;;5030350;28;20423;-85
2023/12/30 12:18:22;;;;;;;0.20;0.20;;;6.50;99.90;;;;;;5029860;28;20176;-86
2023/12/30 12:20:50;;;;;;;0.20;0.20;;;6.50;99.90;;;;;;5030604;28;20275;-85
2023/12/30 12:23:18;;;;;;;0.30;0.30;;;6.50;99.90;;;;;;5028181;28;20438;-85
2023/12/30 12:25:45;;;;;;;0.20;0.20;;;6.40;99.90;;;;;;5024663;28;20965;-84
2023/12/30 12:28:12;;;;;;;0.20;0.20;;;6.40;99.90;;;;;;5034255;28;20440;-85
2023/12/30 12:30:38;;;;;;;0.20;0.20;;;6.70;99.90;;;;;;5035833;28;20476;-85
2023/12/30 12:33:04;;;;;;;0.20;0.20;;;7.20;99.90;;;;;;5031841;28;20461;-85
2023/12/30 12:35:30;;;;;;;0.20;0.20;;;7.20;99.90;;;;;;5039916;28;20392;-84
2023/12/30 12:37:57;;;;;;;0.20;0.20;;;7.50;99.90;;;;;;5025812;28;20458;-85
2023/12/30 12:40:23;;;;;;;0.20;0.20;;;7.60;99.90;;;;;;5029573;28;20431;-84
2023/12/30 12:42:48;;;;;;;0.20;0.20;;;7.80;99.90;;;;;;5030478;28;20797;-84
2023/12/30 12:45:14;;;;;;;0.10;0.10;;;7.50;99.90;;;;;;5021864;28;20175;-84
2023/12/30 12:47:40;;;;;;;0.20;0.20;;;7.50;99.90;;;;;;5032532;28;20202;-84
2023/12/30 12:50:06;;;;;;;0.20;0.20;;;7.30;99.90;;;;;;5032702;28;20469;-85
2023/12/30 12:52:31;;;;;;;0.20;0.20;;;7.20;99.90;;;;;;5023893;28;20192;-84